createdAt,value
2019-02-24T00:01:36.535Z,0
2019-02-24T00:03:28.203Z,0
2019-02-24T00:06:28.759Z,0
2019-02-24T00:09:28.094Z,0
2019-02-24T00:12:28.579Z,0
2019-02-24T00:15:28.110Z,0
2019-02-24T00:18:28.703Z,0
2019-02-24T00:21:28.152Z,0
2019-02-24T00:24:28.587Z,0
2019-02-24T00:27:28.053Z,0
2019-02-24T00:30:28.417Z,0
2019-02-24T00:33:28.807Z,0
2019-02-24T00:36:28.744Z,0
2019-02-24T00:39:28.373Z,0
2019-02-24T00:42:28.677Z,0
2019-02-24T00:45:28.204Z,0
2019-02-24T00:48:28.733Z,0
2019-02-24T00:51:28.395Z,0
2019-02-24T00:54:29.078Z,0
2019-02-24T00:57:28.547Z,0
2019-02-24T01:00:28.160Z,0
2019-02-24T01:03:28.729Z,0
2019-02-24T01:06:28.209Z,0
2019-02-24T01:09:33.829Z,0
2019-02-24T01:12:28.399Z,0
2019-02-24T01:15:29.061Z,0
2019-02-24T01:18:28.703Z,0
2019-02-24T01:21:29.034Z,0
2019-02-24T01:24:28.509Z,0
2019-02-24T01:27:29.094Z,0
2019-02-24T01:30:28.557Z,0
2019-02-24T01:33:33.020Z,0
2019-02-24T01:36:28.770Z,0
2019-02-24T01:39:34.427Z,0
2019-02-24T01:42:30.169Z,0
2019-02-24T01:45:28.628Z,0
2019-02-24T01:48:29.377Z,0
2019-02-24T01:51:30.013Z,0
2019-02-24T01:54:29.060Z,0
2019-02-24T01:57:28.800Z,0
2019-02-24T02:00:28.383Z,0
2019-02-24T02:03:28.973Z,0
2019-02-24T02:06:28.589Z,0
2019-02-24T02:09:39.744Z,0
2019-02-24T02:12:33.610Z,0
2019-02-24T02:15:30.601Z,0
2019-02-24T02:18:33.478Z,0
2019-02-24T02:21:29.133Z,0
2019-02-24T02:24:28.569Z,0
2019-02-24T02:27:29.047Z,0
2019-02-24T02:30:28.612Z,0
2019-02-24T02:33:28.082Z,0
2019-02-24T02:36:28.936Z,0
2019-02-24T02:39:31.042Z,0
2019-02-24T02:42:28.821Z,0
2019-02-24T02:45:28.390Z,0
2019-02-24T02:48:29.823Z,0
2019-02-24T02:51:28.477Z,0
2019-02-24T02:54:29.610Z,0
2019-02-24T02:57:28.055Z,0
2019-02-24T03:00:33.586Z,0
2019-02-24T03:03:28.104Z,0
2019-02-24T03:06:41.108Z,0
2019-02-24T03:09:29.101Z,0
2019-02-24T03:12:28.587Z,0
2019-02-24T03:15:34.013Z,0
2019-02-24T03:18:28.511Z,0
2019-02-24T03:21:28.912Z,0
2019-02-24T03:24:28.412Z,0
2019-02-24T03:27:29.293Z,0
2019-02-24T03:30:28.733Z,0
2019-02-24T03:33:28.265Z,0
2019-02-24T03:36:28.913Z,0
2019-02-24T03:39:28.353Z,0
2019-02-24T03:42:28.898Z,0
2019-02-24T03:45:28.369Z,0
2019-02-24T03:48:33.915Z,0
2019-02-24T03:51:28.271Z,0
2019-02-24T03:54:28.726Z,0
2019-02-24T03:57:28.792Z,0
2019-02-24T04:00:28.514Z,0
2019-02-24T04:03:28.334Z,0
2019-02-24T04:06:28.945Z,0
2019-02-24T04:09:28.320Z,0
2019-02-24T04:12:28.801Z,0
2019-02-24T04:15:28.345Z,0
2019-02-24T04:18:28.875Z,0
2019-02-24T04:21:28.419Z,0
2019-02-24T04:24:28.860Z,0
2019-02-24T04:27:28.420Z,0
2019-02-24T04:30:28.887Z,0
2019-02-24T04:33:28.454Z,0
2019-02-24T04:36:29.121Z,0
2019-02-24T04:39:28.828Z,0
2019-02-24T04:42:28.550Z,0
2019-02-24T04:45:28.197Z,0
2019-02-24T04:48:28.858Z,0
2019-02-24T04:51:28.566Z,0
2019-02-24T04:54:28.114Z,0
2019-02-24T04:57:28.867Z,0
2019-02-24T05:00:28.610Z,0
2019-02-24T05:03:28.161Z,0
2019-02-24T05:06:28.753Z,0
2019-02-24T05:09:28.252Z,0
2019-02-24T05:12:28.896Z,0
2019-02-24T05:15:28.357Z,0
2019-02-24T05:18:28.838Z,0
2019-02-24T05:21:28.162Z,0
2019-02-24T05:24:28.689Z,0
2019-02-24T05:27:28.570Z,0
2019-02-24T05:30:28.039Z,0
2019-02-24T05:33:28.488Z,0
2019-02-24T05:36:31.314Z,0
2019-02-24T05:39:29.021Z,0
2019-02-24T05:42:28.494Z,0
2019-02-24T05:45:28.840Z,0
2019-02-24T05:48:28.879Z,0
2019-02-24T05:51:28.095Z,0
2019-02-24T05:54:28.641Z,0
2019-02-24T05:57:28.138Z,0
2019-02-24T06:00:28.842Z,1
2019-02-24T06:03:28.360Z,0
2019-02-24T06:06:29.487Z,0
2019-02-24T06:09:29.084Z,0
2019-02-24T06:12:28.685Z,0
2019-02-24T06:15:28.227Z,0
2019-02-24T06:18:28.843Z,4
2019-02-24T06:21:28.374Z,3
2019-02-24T06:24:29.017Z,0
2019-02-24T06:27:28.469Z,0
2019-02-24T06:30:28.248Z,0
2019-02-24T06:33:28.900Z,0
2019-02-24T06:36:28.941Z,0
2019-02-24T06:39:28.607Z,0
2019-02-24T06:42:28.138Z,1
2019-02-24T06:45:28.750Z,4
2019-02-24T06:48:28.340Z,0
2019-02-24T06:51:28.819Z,0
2019-02-24T06:54:28.394Z,8
2019-02-24T06:57:28.950Z,0
2019-02-24T07:00:29.760Z,0
2019-02-24T07:03:28.549Z,0
2019-02-24T07:06:28.091Z,32
2019-02-24T07:09:29.700Z,18
2019-02-24T07:12:28.426Z,37
2019-02-24T07:15:29.062Z,45
2019-02-24T07:18:28.634Z,26
2019-02-24T07:21:28.241Z,33
2019-02-24T07:24:28.862Z,39
2019-02-24T07:27:28.379Z,40
2019-02-24T07:30:36.975Z,48
2019-02-24T07:33:29.179Z,51
2019-02-24T07:36:28.637Z,74
2019-02-24T07:39:27.988Z,58
2019-02-24T07:42:28.430Z,65
2019-02-24T07:45:29.025Z,108
2019-02-24T07:48:28.596Z,98
2019-02-24T07:51:29.200Z,151
2019-02-24T07:54:28.890Z,148
2019-02-24T07:57:28.642Z,136
2019-02-24T08:00:32.158Z,104
2019-02-24T08:03:28.186Z,90
2019-02-24T08:06:28.796Z,117
2019-02-24T08:09:28.551Z,173
2019-02-24T08:12:27.928Z,191
2019-02-24T08:15:28.945Z,155
2019-02-24T08:18:28.701Z,192
2019-02-24T08:21:28.205Z,167
2019-02-24T08:24:29.241Z,233
2019-02-24T08:27:28.766Z,381
2019-02-24T08:30:28.327Z,416
2019-02-24T08:33:28.862Z,541
2019-02-24T08:36:28.560Z,547
2019-02-24T08:39:27.975Z,541
2019-02-24T08:42:28.513Z,449
2019-02-24T08:45:28.965Z,504
2019-02-24T08:48:28.626Z,681
2019-02-24T08:51:28.057Z,557
2019-02-24T08:54:28.705Z,520
2019-02-24T08:57:28.299Z,565
2019-02-24T09:00:28.949Z,511
2019-02-24T09:03:28.423Z,579
2019-02-24T09:06:29.064Z,495
2019-02-24T09:09:28.677Z,439
2019-02-24T09:12:28.395Z,560
2019-02-24T09:15:29.313Z,533
2019-02-24T09:18:28.935Z,447
2019-02-24T09:21:28.634Z,491
2019-02-24T09:24:28.339Z,759
2019-02-24T09:27:28.790Z,751
2019-02-24T09:30:28.366Z,765
2019-02-24T09:33:34.253Z,749
2019-02-24T09:36:28.646Z,699
2019-02-24T09:39:28.427Z,577
2019-02-24T09:42:29.123Z,752
2019-02-24T09:45:28.681Z,716
2019-02-24T09:48:28.220Z,544
2019-02-24T09:51:28.744Z,696
2019-02-24T09:54:28.569Z,708
2019-02-24T09:57:29.107Z,686
2019-02-24T10:00:28.767Z,671
2019-02-24T10:03:28.396Z,748
2019-02-24T10:06:29.126Z,752
2019-02-24T10:09:28.685Z,613
2019-02-24T10:12:28.275Z,611
2019-02-24T10:15:33.873Z,741
2019-02-24T10:18:28.410Z,732
2019-02-24T10:21:29.062Z,808
2019-02-24T10:24:28.525Z,781
2019-02-24T10:27:29.089Z,667
2019-02-24T10:30:28.714Z,696
2019-02-24T10:33:31.189Z,399
2019-02-24T10:36:29.312Z,718
2019-02-24T10:39:29.888Z,676
2019-02-24T10:42:28.711Z,257
2019-02-24T10:45:28.159Z,220
2019-02-24T10:48:28.737Z,193
2019-02-24T10:51:28.596Z,208
2019-02-24T10:54:28.174Z,220
2019-02-24T10:57:28.801Z,273
2019-02-24T11:00:28.499Z,245
2019-02-24T11:03:28.981Z,229
2019-02-24T11:06:28.734Z,0
2019-02-24T11:09:28.431Z,967
2019-02-24T11:12:29.175Z,385
2019-02-24T11:15:28.673Z,257
2019-02-24T11:18:28.397Z,241
2019-02-24T11:21:28.931Z,414
2019-02-24T11:24:28.984Z,216
2019-02-24T11:27:28.527Z,321
2019-02-24T11:30:28.166Z,1094
2019-02-24T11:33:29.043Z,817
2019-02-24T11:36:28.769Z,708
2019-02-24T11:39:28.361Z,443
2019-02-24T11:42:28.877Z,196
2019-02-24T11:45:28.421Z,172
2019-02-24T11:48:29.146Z,170
2019-02-24T11:51:28.752Z,168
2019-02-24T11:54:28.354Z,168
2019-02-24T11:57:29.059Z,166
2019-02-24T12:00:28.848Z,188
2019-02-24T12:03:28.505Z,168
2019-02-24T12:06:28.129Z,183
2019-02-24T12:09:28.696Z,162
2019-02-24T12:12:29.505Z,181
2019-02-24T12:15:29.139Z,180
2019-02-24T12:18:28.777Z,158
2019-02-24T12:21:28.249Z,156
2019-02-24T12:24:28.765Z,157
2019-02-24T12:27:28.315Z,155
2019-02-24T12:30:29.241Z,174
2019-02-24T12:33:28.285Z,143
2019-02-24T12:36:29.148Z,164
2019-02-24T12:39:28.783Z,146
2019-02-24T12:42:28.545Z,145
2019-02-24T12:45:28.034Z,145
2019-02-24T12:48:33.621Z,163
2019-02-24T12:51:28.176Z,162
2019-02-24T12:54:28.724Z,141
2019-02-24T12:57:28.499Z,159
2019-02-24T13:00:28.163Z,158
2019-02-24T13:03:37.661Z,157
2019-02-24T13:06:28.712Z,156
2019-02-24T13:09:28.369Z,155
2019-02-24T13:12:28.952Z,133
2019-02-24T13:15:28.684Z,131
2019-02-24T13:18:28.498Z,150
2019-02-24T13:21:29.162Z,149
2019-02-24T13:24:28.714Z,125
2019-02-24T13:27:28.415Z,125
2019-02-24T13:30:29.130Z,124
2019-02-24T13:33:29.042Z,143
2019-02-24T13:36:28.960Z,141
2019-02-24T13:39:28.511Z,120
2019-02-24T13:42:29.107Z,139
2019-02-24T13:45:28.818Z,137
2019-02-24T13:48:28.237Z,116
2019-02-24T13:51:28.958Z,134
2019-02-24T13:54:28.636Z,108
2019-02-24T13:57:28.093Z,99
2019-02-24T14:00:28.826Z,98
2019-02-24T14:03:28.358Z,117
2019-02-24T14:06:28.928Z,95
2019-02-24T14:09:28.322Z,94
2019-02-24T14:12:28.981Z,92
2019-02-24T14:15:28.659Z,110
2019-02-24T14:18:28.351Z,89
2019-02-24T14:21:28.852Z,87
2019-02-24T14:24:28.426Z,86
2019-02-24T14:27:29.131Z,100
2019-02-24T14:30:28.682Z,99
2019-02-24T14:33:28.309Z,103
2019-02-24T14:36:29.016Z,81
2019-02-24T14:39:28.696Z,80
2019-02-24T14:42:28.702Z,76
2019-02-24T14:45:28.299Z,96
2019-02-24T14:48:28.943Z,94
2019-02-24T14:51:28.499Z,72
2019-02-24T14:54:28.928Z,70
2019-02-24T14:57:28.555Z,69
2019-02-24T15:00:29.260Z,67
2019-02-24T15:03:28.826Z,63
2019-02-24T15:06:28.288Z,83
2019-02-24T15:09:28.822Z,61
2019-02-24T15:12:28.471Z,78
2019-02-24T15:15:33.204Z,56
2019-02-24T15:18:28.237Z,74
2019-02-24T15:21:28.822Z,50
2019-02-24T15:24:28.484Z,69
2019-02-24T15:27:29.147Z,67
2019-02-24T15:30:31.129Z,45
2019-02-24T15:33:28.874Z,63
2019-02-24T15:36:28.476Z,41
2019-02-24T15:39:28.104Z,39
2019-02-24T15:42:28.704Z,56
2019-02-24T15:45:28.393Z,59
2019-02-24T15:48:28.967Z,37
2019-02-24T15:51:29.861Z,34
2019-02-24T15:54:28.907Z,52
2019-02-24T15:57:28.660Z,49
2019-02-24T16:00:28.424Z,26
2019-02-24T16:03:29.261Z,23
2019-02-24T16:06:36.929Z,41
2019-02-24T16:09:28.198Z,39
2019-02-24T16:12:28.994Z,16
2019-02-24T16:15:29.813Z,13
2019-02-24T16:18:36.279Z,11
2019-02-24T16:21:28.532Z,29
2019-02-24T16:24:28.116Z,26
2019-02-24T16:27:28.929Z,3
2019-02-24T16:30:28.494Z,0
2019-02-24T16:33:29.091Z,0
2019-02-24T16:36:28.655Z,0
2019-02-24T16:39:28.289Z,0
2019-02-24T16:42:28.827Z,14
2019-02-24T16:45:28.423Z,0
2019-02-24T16:48:29.070Z,0
2019-02-24T16:51:29.002Z,11
2019-02-24T16:54:28.481Z,0
2019-02-24T16:57:29.134Z,0
2019-02-24T17:00:28.727Z,6
2019-02-24T17:03:33.399Z,4
2019-02-24T17:06:29.019Z,0
2019-02-24T17:09:28.490Z,2
2019-02-24T17:12:29.078Z,1
2019-02-24T17:15:28.792Z,1
2019-02-24T17:18:28.410Z,0
2019-02-24T17:21:29.062Z,0
2019-02-24T17:24:28.560Z,0
2019-02-24T17:27:30.025Z,0
2019-02-24T17:30:28.686Z,0
2019-02-24T17:33:30.231Z,0
2019-02-24T17:36:28.849Z,0
2019-02-24T17:39:28.567Z,0
2019-02-24T17:42:28.148Z,0
2019-02-24T17:45:28.593Z,0
2019-02-24T17:48:28.162Z,0
2019-02-24T17:51:34.908Z,0
2019-02-24T17:54:28.354Z,0
2019-02-24T17:57:28.885Z,0
2019-02-24T18:00:32.467Z,0
2019-02-24T18:03:29.101Z,0
2019-02-24T18:06:28.202Z,0
2019-02-24T18:09:30.274Z,0
2019-02-24T18:12:28.961Z,0
2019-02-24T18:15:28.535Z,0
2019-02-24T18:18:28.359Z,0
2019-02-24T18:21:28.876Z,0
2019-02-24T18:24:28.268Z,0
2019-02-24T18:27:28.888Z,0
2019-02-24T18:30:28.529Z,0
2019-02-24T18:33:29.291Z,0
2019-02-24T18:36:28.703Z,0
2019-02-24T18:39:28.323Z,0
2019-02-24T18:42:29.085Z,0
2019-02-24T18:45:28.688Z,0
2019-02-24T18:48:28.187Z,0
2019-02-24T18:51:28.991Z,0
2019-02-24T18:54:34.773Z,0
2019-02-24T18:57:29.354Z,0
2019-02-24T19:00:28.962Z,0
2019-02-24T19:03:29.036Z,0
2019-02-24T19:06:28.599Z,0
2019-02-24T19:09:28.716Z,0
2019-02-24T19:12:28.417Z,0
2019-02-24T19:15:28.983Z,0
2019-02-24T19:18:29.053Z,0
2019-02-24T19:21:29.220Z,0
2019-02-24T19:24:28.865Z,0
2019-02-24T19:27:28.297Z,0
2019-02-24T19:30:28.846Z,0
2019-02-24T19:33:28.551Z,0
2019-02-24T19:36:28.118Z,0
2019-02-24T19:39:28.757Z,0
2019-02-24T19:42:28.357Z,0
2019-02-24T19:45:28.933Z,0
2019-02-24T19:48:28.544Z,0
2019-02-24T19:51:28.131Z,0
2019-02-24T19:54:28.634Z,0
2019-02-24T19:57:28.009Z,0
2019-02-24T20:00:28.517Z,0
2019-02-24T20:03:29.081Z,0
2019-02-24T20:06:28.760Z,0
2019-02-24T20:09:28.141Z,0
2019-02-24T20:12:29.113Z,0
2019-02-24T20:15:28.737Z,0
2019-02-24T20:18:19.361Z,0
2019-02-24T20:21:28.797Z,0
2019-02-24T20:24:32.962Z,0
2019-02-24T20:27:28.913Z,0
2019-02-24T20:30:29.100Z,0
2019-02-24T20:33:28.541Z,0
2019-02-24T20:36:29.103Z,0
2019-02-24T20:39:28.934Z,0
2019-02-24T20:42:28.597Z,0
2019-02-24T20:45:29.419Z,0
2019-02-24T20:48:28.024Z,0
2019-02-24T20:51:28.616Z,0
2019-02-24T20:54:28.092Z,0
2019-02-24T20:57:28.810Z,0
2019-02-24T21:06:13.868Z,0
2019-02-24T21:06:58.746Z,0
2019-02-24T21:11:53.591Z,0
2019-02-24T21:13:43.556Z,0
2019-02-24T21:30:28.618Z,0
2019-02-24T21:33:28.343Z,0
2019-02-24T21:36:29.029Z,0
2019-02-24T21:39:33.628Z,0
2019-02-24T21:42:28.222Z,0
2019-02-24T21:45:28.495Z,0
2019-02-24T21:48:28.239Z,0
2019-02-24T21:51:29.015Z,0
2019-02-24T21:54:28.923Z,0
2019-02-24T21:57:28.629Z,0
2019-02-24T22:00:28.251Z,0
2019-02-24T22:03:29.127Z,0
2019-02-24T22:06:28.846Z,0
2019-02-24T22:09:28.289Z,0
2019-02-24T22:12:28.885Z,0
2019-02-24T22:15:28.659Z,0
2019-02-24T22:18:28.293Z,0
2019-02-24T22:21:28.731Z,0
2019-02-24T22:24:28.306Z,0
2019-02-24T22:27:28.891Z,0
2019-02-24T22:30:28.719Z,0
2019-02-24T22:33:28.302Z,0
2019-02-24T22:36:29.080Z,0
2019-02-24T22:39:28.818Z,0
2019-02-24T22:42:28.443Z,0
2019-02-24T22:45:30.564Z,0
2019-02-24T22:48:29.153Z,0
2019-02-24T22:51:28.836Z,0
2019-02-24T22:54:28.407Z,0
2019-02-24T22:57:29.054Z,0
2019-02-24T23:00:35.382Z,0
2019-02-24T23:03:31.401Z,0
2019-02-24T23:06:29.014Z,0
2019-02-24T23:09:28.641Z,0
2019-02-24T23:12:28.318Z,0
2019-02-24T23:15:28.954Z,0
2019-02-24T23:18:28.769Z,0
2019-02-24T23:21:28.495Z,0
2019-02-24T23:24:29.032Z,0
2019-02-24T23:27:28.651Z,0
2019-02-24T23:30:28.421Z,0
2019-02-24T23:33:28.991Z,0
2019-02-24T23:36:28.717Z,0
2019-02-24T23:39:28.293Z,0
2019-02-24T23:42:28.907Z,0
2019-02-24T23:45:28.547Z,0
2019-02-24T23:48:29.012Z,0
2019-02-24T23:51:28.609Z,0
2019-02-24T23:54:28.460Z,0
2019-02-24T23:57:28.961Z,0
